Time;durP1;ratioP1;P1;durP2;ratioP2;P2;SDS_P1;SDS_P2;PMS_P1;PMS_P2;Temp;Humidity;BMP_temperature;BMP_pressure;BME280_temperature;BME280_humidity;BME280_pressure;Samples;Min_cycle;Max_cycle;Signal;HPM_P1;HPM_P2
2023/11/10 00:01:48;;;;;;;0.57;0.37;;;15.50;99.90;;;15.80;56.49;99464.38;4878175;22;100637;-87
2023/11/10 00:04:16;;;;;;;0.90;0.30;;;15.40;99.90;;;16.02;56.77;99459.09;4892578;28;97861;-87
2023/11/10 00:06:43;;;;;;;3.77;0.67;;;15.70;99.90;;;15.95;50.88;99463.19;4870504;28;102602;-87
2023/11/10 00:09:14;;;;;;;0.23;0.10;;;15.70;99.90;;;15.89;54.69;99459.16;4852348;28;99931;-88
2023/11/10 00:11:44;;;;;;;0.60;0.20;;;15.50;99.90;;;16.09;56.28;99449.69;4865167;28;97296;-88
2023/11/10 00:14:12;;;;;;;1.60;0.30;;;15.70;99.90;;;16.28;55.83;99447.28;4811354;28;98655;-88
2023/11/10 00:16:43;;;;;;;0.40;0.13;;;16.10;99.90;;;16.19;51.68;99455.97;4807263;28;98734;-88
2023/11/10 00:19:12;;;;;;;0.80;0.33;;;16.00;99.90;;;16.38;55.41;99444.75;4788622;28;101470;-86
2023/11/10 00:21:37;;;;;;;0.10;0.10;;;16.20;99.90;;;16.44;55.51;99432.75;4771732;28;97698;-90
2023/11/10 00:24:05;;;;;;;0.30;0.20;;;16.30;99.90;;;16.49;55.09;99435.91;4786744;28;98625;-88
2023/11/10 00:26:34;;;;;;;0.50;0.30;;;16.30;99.90;;;16.38;53.33;99430.59;4838074;28;98650;-86
2023/11/10 00:29:05;;;;;;;0.40;0.27;;;16.10;99.90;;;16.29;54.54;99419.69;4869020;28;103353;-87
2023/11/10 00:31:31;;;;;;;0.17;0.17;;;16.00;99.90;;;16.24;55.46;99421.88;4837852;28;100483;-88
2023/11/10 00:33:59;;;;;;;0.93;0.27;;;15.80;99.90;;;16.14;53.82;99420.91;4885662;28;97177;-89
2023/11/10 00:36:24;;;;;;;0.80;0.30;;;15.70;99.90;;;16.09;55.59;99415.09;4866063;28;99058;-90
2023/11/10 00:38:51;;;;;;;0.20;0.20;;;15.60;99.90;;;16.04;56.16;99411.94;4874031;28;97607;-86
2023/11/10 00:41:19;;;;;;;0.30;0.20;;;15.50;99.90;;;16.04;55.58;99406.63;4871354;28;98583;-87
2023/11/10 00:43:44;;;;;;;0.50;0.30;;;15.60;99.90;;;16.15;56.06;99411.94;4884507;28;100110;-87
2023/11/10 00:46:10;;;;;;;0.57;0.20;;;15.70;99.90;;;16.27;53.70;99410.16;4854004;28;99874;-89
2023/11/10 00:48:38;;;;;;;0.63;0.40;;;16.00;99.90;;;16.33;55.60;99415.81;4863819;28;97005;-88
2023/11/10 00:51:04;;;;;;;0.67;0.20;;;16.10;99.90;;;16.36;52.59;99410.28;4874538;28;96907;-88
2023/11/10 00:53:30;;;;;;;0.37;0.10;;;16.10;99.90;;;16.22;55.25;99417.66;4858212;28;97960;-88
2023/11/10 00:55:56;;;;;;;1.00;0.30;;;15.90;99.90;;;16.06;52.53;99415.34;4869302;28;97833;-88
2023/11/10 00:58:22;;;;;;;1.03;0.20;;;15.60;99.90;;;15.88;53.36;99414.09;4872277;28;103240;-89
2023/11/10 01:00:48;;;;;;;0.27;0.27;;;15.40;99.90;;;15.69;51.58;99415.50;4887431;28;97819;-88
2023/11/10 01:03:14;;;;;;;1.10;0.40;;;15.20;99.90;;;15.53;56.45;99408.78;4899848;28;97631;-87
2023/11/10 01:05:40;;;;;;;0.53;0.30;;;14.90;99.90;;;15.58;54.87;99418.09;4842260;28;98117;-89
2023/11/10 01:08:05;;;;;;;0.30;0.10;;;15.00;99.90;;;15.55;57.61;99414.84;4867977;28;103374;-89
2023/11/10 01:10:36;;;;;;;0.20;0.17;;;14.90;99.90;;;15.53;57.69;99408.78;4833696;28;97363;-87
2023/11/10 01:13:03;;;;;;;0.63;0.30;;;14.90;99.90;;;15.45;57.72;99407.53;4881627;28;97479;-87
2023/11/10 01:15:30;;;;;;;0.60;0.37;;;14.80;99.90;;;15.43;55.17;99398.84;4852553;28;99545;-88
2023/11/10 01:17:56;;;;;;;0.70;0.30;;;14.90;99.90;;;15.38;55.28;99401.00;4865638;28;99287;-90
2023/11/10 01:20:22;;;;;;;0.93;0.20;;;14.80;99.90;;;15.31;56.79;99393.59;4825681;28;96970;-87
2023/11/10 01:22:48;;;;;;;0.57;0.10;;;14.70;99.90;;;15.37;57.49;99393.16;4877179;28;96976;-88
2023/11/10 01:25:14;;;;;;;0.57;0.20;;;14.80;99.90;;;15.54;57.14;99402.50;4870794;28;99516;-89
2023/11/10 01:27:42;;;;;;;0.23;0.20;;;15.00;99.90;;;15.61;57.62;99401.94;4882295;28;114504;-88
2023/11/10 01:30:10;;;;;;;0.30;0.10;;;15.10;99.90;;;15.75;57.69;99392.91;4896301;28;98964;-89
2023/11/10 01:32:38;;;;;;;0.50;0.30;;;15.30;99.90;;;15.95;56.99;99389.59;4878723;28;98201;-89
2023/11/10 01:35:04;;;;;;;0.47;0.47;;;15.60;99.90;;;16.11;56.42;99389.22;4882892;28;99478;-86
2023/11/10 01:37:30;;;;;;;0.10;0.10;;;15.90;99.90;;;16.26;55.98;99393.34;4893883;28;100838;-89
2023/11/10 01:39:59;;;;;;;0.50;0.17;;;16.10;99.90;;;16.46;55.59;99382.91;4853778;28;97456;-87
2023/11/10 01:42:24;;;;;;;0.53;0.40;;;16.40;99.90;;;16.56;55.15;99386.53;4851994;28;97403;-89
2023/11/10 01:44:50;;;;;;;0.57;0.30;;;16.50;99.90;;;16.53;55.25;99378.81;4871765;28;104959;-89
2023/11/10 01:47:17;;;;;;;0.30;0.13;;;16.40;99.90;;;16.50;55.01;99379.06;4846728;28;98895;-88
2023/11/10 01:49:43;;;;;;;1.30;0.10;;;16.30;99.90;;;16.60;55.23;99380.84;4855289;28;97302;-89
2023/11/10 01:52:12;;;;;;;0.70;0.20;;;16.40;99.90;;;16.59;54.60;99378.31;4880536;28;97384;-88
2023/11/10 01:54:38;;;;;;;1.70;0.30;;;16.40;99.90;;;16.53;53.02;99373.50;4889393;28;101049;-88
2023/11/10 01:57:04;;;;;;;0.20;0.20;;;16.30;99.90;;;16.52;53.10;99377.13;4851142;28;99286;-89
2023/11/10 01:59:33;;;;;;;0.30;0.20;;;16.20;99.90;;;16.41;54.15;99374.47;4858831;28;104787;-89
2023/11/10 02:02:00;;;;;;;0.27;0.20;;;16.00;99.90;;;16.38;54.59;99380.03;4847860;28;97925;-89
2023/11/10 02:04:26;;;;;;;0.97;0.20;;;16.00;99.90;;;16.28;51.92;99386.06;4892110;28;99684;-89
2023/11/10 02:06:52;;;;;;;0.40;0.20;;;15.90;99.90;;;16.00;52.51;99381.22;4875459;28;102982;-89
2023/11/10 02:09:22;;;;;;;0.23;0.17;;;15.50;99.90;;;16.08;56.25;99378.84;4861214;28;97437;-89
2023/11/10 02:11:48;;;;;;;0.27;0.13;;;15.50;99.90;;;16.09;56.23;99380.53;4837882;28;97109;-89
2023/11/10 02:14:14;;;;;;;0.10;0.10;;;15.60;99.90;;;16.15;56.34;99389.81;4858411;28;98968;-88
2023/11/10 02:16:41;;;;;;;0.57;0.20;;;15.70;99.90;;;16.08;56.30;99383.31;4843829;28;98831;-88
2023/11/10 02:19:15;;;;;;;0.57;0.10;;;15.60;99.90;;;15.95;55.78;99386.06;4872291;28;97550;-87
2023/11/10 02:21:42;;;;;;;0.87;0.30;;;15.40;99.90;;;15.90;54.76;99385.56;4857977;28;97473;-88
2023/11/10 02:24:12;;;;;;;0.30;0.30;;;15.40;99.90;;;15.95;56.66;99380.75;4845098;28;97963;-87
2023/11/10 02:26:41;;;;;;;0.40;0.20;;;15.50;99.90;;;15.90;53.59;99380.25;4869063;28;103929;-87
2023/11/10 02:29:07;;;;;;;0.73;0.43;;;15.50;99.90;;;15.72;54.20;99383.38;4896374;28;97391;-87
2023/11/10 02:31:35;;;;;;;0.47;0.30;;;15.20;99.90;;;15.56;52.50;99388.13;4893830;28;97420;-87
2023/11/10 02:34:01;;;;;;;0.83;0.20;;;15.10;99.90;;;15.42;53.86;99381.22;4868536;28;99577;-85
2023/11/10 02:36:31;;;;;;;2.83;0.40;;;14.90;99.90;;;15.30;55.36;99386.59;4872818;28;97686;-87
2023/11/10 02:38:56;;;;;;;0.97;0.37;;;14.70;99.90;;;15.09;54.98;99381.94;4881254;28;97539;-87
2023/11/10 02:41:25;;;;;;;0.50;0.30;;;14.50;99.90;;;14.94;54.87;99387.53;4852583;28;97563;-86
2023/11/10 02:43:51;;;;;;;0.60;0.30;;;14.40;99.90;;;14.89;58.15;99377.22;4843958;28;129562;-89
2023/11/10 02:46:18;;;;;;;0.23;0.20;;;14.20;99.90;;;14.91;58.19;99371.84;4872327;28;97354;-86
2023/11/10 02:48:43;;;;;;;1.30;0.37;;;14.30;99.90;;;14.84;56.95;99376.72;4865980;28;97255;-87
2023/11/10 02:51:09;;;;;;;1.00;0.27;;;14.20;99.90;;;14.83;58.10;99373.22;4887868;28;97587;-88
2023/11/10 02:53:35;;;;;;;0.73;0.33;;;14.20;99.90;;;14.59;56.03;99383.81;4868561;28;107542;-86
2023/11/10 02:56:02;;;;;;;0.73;0.20;;;13.90;99.90;;;14.71;55.87;99378.59;4907422;28;97169;-88
2023/11/10 02:58:30;;;;;;;0.67;0.23;;;14.10;99.90;;;14.46;57.49;99369.72;4872248;28;100451;-87
2023/11/10 03:01:01;;;;;;;0.77;0.30;;;13.80;99.90;;;14.40;55.30;99371.97;4828200;28;97994;-88
2023/11/10 03:03:28;;;;;;;0.20;0.10;;;13.80;99.90;;;14.43;59.21;99377.88;4858482;28;102073;-87
2023/11/10 03:05:56;;;;;;;0.87;0.33;;;13.80;99.90;;;14.34;58.53;99370.59;4868841;28;102418;-86
2023/11/10 03:08:22;;;;;;;0.53;0.10;;;13.70;99.90;;;14.48;61.46;99367.84;4889841;28;97171;-87
2023/11/10 03:10:50;;;;;;;0.67;0.20;;;13.80;99.90;;;14.65;60.38;99368.44;4880246;28;97338;-87
2023/11/10 03:13:16;;;;;;;0.20;0.20;;;14.00;99.90;;;14.84;60.74;99363.47;4893956;28;97149;-87
2023/11/10 03:15:43;;;;;;;0.63;0.30;;;14.20;99.90;;;14.83;59.41;99351.16;4896379;28;109969;-87
2023/11/10 03:18:09;;;;;;;0.53;0.20;;;14.30;99.90;;;14.94;59.70;99359.19;4894851;28;99938;-86
2023/11/10 03:20:34;;;;;;;1.67;0.70;;;14.30;99.90;;;14.92;56.06;99361.09;4881568;28;97742;-87
2023/11/10 03:23:00;;;;;;;0.20;0.10;;;14.40;99.90;;;15.11;59.70;99348.13;4894140;28;98905;-87
2023/11/10 03:25:29;;;;;;;1.37;0.30;;;14.50;99.90;;;15.25;57.83;99359.53;4865602;28;97515;-86
2023/11/10 03:27:55;;;;;;;0.30;0.20;;;14.80;99.90;;;15.43;58.45;99350.16;4879610;28;96623;-88
2023/11/10 03:30:21;;;;;;;0.50;0.30;;;15.00;99.90;;;15.49;55.50;99349.72;4904085;28;99414;-88
2023/11/10 03:32:47;;;;;;;2.07;0.23;;;15.10;99.90;;;15.43;55.33;99350.16;4883458;28;98053;-89
2023/11/10 03:35:16;;;;;;;0.13;0.10;;;15.00;99.90;;;15.49;58.47;99349.72;4890457;28;97478;-88
2023/11/10 03:37:45;;;;;;;0.93;0.20;;;15.00;99.90;;;15.61;57.80;99342.63;4881602;28;103156;-87
2023/11/10 03:40:11;;;;;;;0.67;0.20;;;15.20;99.90;;;15.66;57.95;99343.97;4877772;28;105224;-89
2023/11/10 03:42:37;;;;;;;0.17;0.10;;;15.20;99.90;;;15.69;56.97;99343.75;4884247;28;102479;-89
2023/11/10 03:45:03;;;;;;;1.50;0.33;;;15.30;99.90;;;15.77;55.51;99349.31;4868909;28;99428;-89
2023/11/10 03:47:29;;;;;;;0.60;0.30;;;15.40;99.90;;;15.77;57.05;99348.47;4893686;28;97259;-89
2023/11/10 03:49:55;;;;;;;0.73;0.27;;;15.30;99.90;;;15.74;57.23;99344.22;4900270;28;97338;-89
2023/11/10 03:52:22;;;;;;;0.60;0.30;;;15.30;99.90;;;15.84;57.32;99343.50;4894068;28;98600;-88
2023/11/10 03:54:48;;;;;;;1.40;0.20;;;15.40;99.90;;;15.72;57.38;99342.66;4890906;28;99991;-88
2023/11/10 03:57:14;;;;;;;0.40;0.20;;;15.20;99.90;;;15.69;56.03;99350.88;4868000;28;97184;-87
2023/11/10 03:59:41;;;;;;;0.93;0.27;;;15.10;99.90;;;15.52;54.30;99359.25;4881572;28;97020;-88
2023/11/10 04:02:09;;;;;;;0.50;0.33;;;15.00;99.90;;;15.48;55.32;99358.66;4897664;28;101525;-88
2023/11/10 04:04:36;;;;;;;1.80;0.63;;;14.80;99.90;;;15.49;56.35;99355.03;4906710;28;98092;-88
2023/11/10 04:07:03;;;;;;;1.23;0.33;;;14.80;99.90;;;15.44;57.26;99352.72;4882050;28;98182;-89
2023/11/10 04:09:33;;;;;;;1.17;0.63;;;14.80;99.90;;;15.41;57.28;99357.41;4881334;28;97130;-89
2023/11/10 04:12:01;;;;;;;1.50;0.40;;;14.70;99.90;;;15.30;56.21;99366.19;4867213;28;97424;-89
2023/11/10 04:14:27;;;;;;;0.23;0.20;;;14.60;99.90;;;15.28;54.92;99361.97;4870041;28;97333;-89
2023/11/10 04:16:52;;;;;;;0.40;0.30;;;14.60;99.90;;;15.25;57.67;99365.69;4882658;28;97157;-89
2023/11/10 04:19:18;;;;;;;0.43;0.20;;;14.50;99.90;;;15.02;57.02;99362.09;4901314;28;99668;-89
2023/11/10 04:21:44;;;;;;;1.13;0.20;;;14.40;99.90;;;15.09;56.26;99351.88;4843007;28;98537;-87
2023/11/10 04:24:11;;;;;;;3.53;0.53;;;14.50;99.90;;;15.00;57.05;99358.72;4871233;28;97083;-89
2023/11/10 04:26:37;;;;;;;0.30;0.27;;;14.40;99.90;;;14.94;58.49;99358.31;4879305;28;97044;-87
2023/11/10 04:29:09;;;;;;;0.30;0.20;;;14.30;99.90;;;14.88;58.84;99354.31;4855323;28;96911;-89
2023/11/10 04:31:35;;;;;;;1.10;0.30;;;14.30;99.90;;;14.72;58.40;99359.03;4875866;28;98090;-89
2023/11/10 04:34:02;;;;;;;5.10;0.50;;;14.10;99.90;;;14.58;56.73;99357.41;4902451;28;103095;-90
2023/11/10 04:36:32;;;;;;;1.97;0.40;;;14.00;99.90;;;14.50;56.87;99359.78;4899028;28;97495;-90
2023/11/10 04:38:58;;;;;;;0.60;0.40;;;13.90;99.90;;;14.51;56.33;99359.66;4866134;28;97225;-90
2023/11/10 04:41:24;;;;;;;2.83;0.67;;;13.90;99.90;;;14.46;58.18;99353.81;4832120;28;104790;-88
2023/11/10 04:43:53;;;;;;;0.60;0.20;;;13.80;99.90;;;14.55;58.70;99350.50;4896685;28;98653;-88
2023/11/10 04:46:20;;;;;;;1.87;0.30;;;13.90;99.90;;;14.58;58.12;99342.31;4869991;28;97054;-88
2023/11/10 04:48:46;;;;;;;0.87;0.20;;;14.00;99.90;;;14.70;58.62;99356.50;4880828;28;99797;-89
2023/11/10 04:51:11;;;;;;;0.20;0.10;;;14.10;99.90;;;14.75;59.07;99353.50;4879679;28;99276;-89
2023/11/10 04:53:41;;;;;;;0.40;0.17;;;14.20;99.90;;;14.59;56.27;99359.94;4871357;28;97173;-88
2023/11/10 04:56:06;;;;;;;2.43;0.23;;;14.10;99.90;;;14.59;59.37;99359.94;4888254;28;98317;-89
2023/11/10 04:58:32;;;;;;;1.87;0.40;;;14.00;99.90;;;14.64;58.89;99356.97;4894702;28;103995;-88
2023/11/10 05:00:58;;;;;;;0.30;0.30;;;14.00;99.90;;;14.52;56.29;99361.34;4859219;28;102511;-88
2023/11/10 05:03:26;;;;;;;1.27;0.30;;;14.00;99.90;;;14.62;56.54;99364.19;4868348;28;102942;-89
2023/11/10 05:05:51;;;;;;;0.83;0.30;;;14.10;99.90;;;14.62;58.00;99350.09;4881263;28;99407;-88
2023/11/10 05:08:17;;;;;;;1.70;0.30;;;14.00;99.90;;;14.59;55.31;99359.94;4872574;28;97009;-88
2023/11/10 05:10:43;;;;;;;0.33;0.23;;;14.10;99.90;;;14.62;59.34;99352.75;4872964;28;97722;-90
2023/11/10 05:13:09;;;;;;;0.53;0.20;;;14.10;99.90;;;14.56;58.07;99354.84;4873967;28;99121;-87
2023/11/10 05:15:38;;;;;;;0.20;0.20;;;14.10;99.90;;;14.65;56.86;99356.00;4887548;28;97721;-88
2023/11/10 05:18:04;;;;;;;0.63;0.33;;;14.20;99.90;;;14.66;56.08;99356.84;4880920;28;97506;-88
2023/11/10 05:20:31;;;;;;;1.47;0.30;;;14.20;99.90;;;14.64;54.08;99356.13;4889799;28;97646;-87
2023/11/10 05:22:57;;;;;;;0.77;0.20;;;14.20;99.90;;;14.62;56.00;99356.25;4883366;28;98680;-88
2023/11/10 05:25:35;;;;;;;2.47;0.20;;;14.20;99.90;;;14.58;55.65;99368.00;4895023;28;97146;-86
2023/11/10 05:28:01;;;;;;;3.50;0.30;;;14.20;99.90;;;14.66;58.51;99364.81;4856144;28;97101;-87
2023/11/10 05:30:27;;;;;;;0.73;0.47;;;14.20;99.90;;;14.53;56.38;99355.09;4886938;28;102869;-87
2023/11/10 05:32:53;;;;;;;0.90;0.30;;;14.00;99.90;;;14.42;54.57;99357.63;4889094;28;118288;-88
2023/11/10 05:35:19;;;;;;;2.33;0.50;;;13.90;99.90;;;14.36;56.17;99354.59;4890189;28;99100;-88
2023/11/10 05:37:45;;;;;;;0.93;0.30;;;13.80;99.90;;;14.43;59.05;99361.97;4901969;28;97391;-89
2023/11/10 05:40:11;;;;;;;0.90;0.20;;;13.90;99.90;;;14.43;60.37;99353.16;4895978;28;97441;-87
2023/11/10 05:42:37;;;;;;;0.83;0.20;;;13.80;99.90;;;14.35;55.76;99367.00;4881371;28;101358;-87
2023/11/10 05:45:04;;;;;;;0.50;0.20;;;13.90;99.90;;;14.52;60.30;99364.00;4866562;28;97448;-88
2023/11/10 05:47:30;;;;;;;1.70;0.40;;;14.00;99.90;;;14.57;58.42;99355.69;4856788;28;98443;-88
2023/11/10 05:50:03;;;;;;;1.27;0.30;;;14.00;99.90;;;14.53;56.21;99363.03;4883799;28;97789;-85
2023/11/10 05:52:31;;;;;;;1.60;0.30;;;14.00;99.90;;;14.51;57.20;99359.66;4874751;28;101050;-88
2023/11/10 05:54:58;;;;;;;0.80;0.50;;;14.00;99.90;;;14.45;54.82;99360.09;4875515;28;101162;-87
2023/11/10 05:57:25;;;;;;;0.20;0.20;;;14.00;99.90;;;14.65;58.89;99368.44;4879641;28;96990;-87
2023/11/10 05:59:51;;;;;;;1.20;0.20;;;14.10;99.90;;;14.53;58.86;99365.69;4902425;28;97932;-86
2023/11/10 06:02:18;;;;;;;1.17;0.47;;;14.00;99.90;;;14.44;54.03;99366.34;4920203;28;97325;-87
2023/11/10 06:04:44;;;;;;;0.97;0.40;;;14.00;99.90;;;14.27;55.30;99371.97;4902125;28;97316;-87
2023/11/10 06:07:11;;;;;;;0.57;0.30;;;13.80;99.90;;;14.15;54.89;99370.19;4905280;28;97628;-86
2023/11/10 06:09:39;;;;;;;3.30;0.60;;;13.70;99.90;;;14.12;56.10;99381.88;4911922;28;102133;-87
2023/11/10 06:12:07;;;;;;;1.80;0.40;;;13.70;99.90;;;14.21;59.22;99380.38;4895336;28;98537;-87
2023/11/10 06:14:33;;;;;;;0.30;0.20;;;13.60;99.90;;;14.29;60.37;99362.97;4886014;28;97229;-87
2023/11/10 06:16:59;;;;;;;0.73;0.20;;;13.70;99.90;;;14.28;59.05;99371.88;4906021;28;97463;-87
2023/11/10 06:19:25;;;;;;;1.97;0.50;;;13.80;99.90;;;14.29;59.69;99367.41;4874095;28;97385;-86
2023/11/10 06:21:52;;;;;;;0.57;0.33;;;13.80;99.90;;;14.26;55.15;99383.56;4842752;28;98203;-87
2023/11/10 06:24:20;;;;;;;0.30;0.20;;;13.80;99.90;;;14.11;57.43;99380.19;4857124;28;97482;-87
2023/11/10 06:26:46;;;;;;;0.97;0.40;;;13.70;99.90;;;14.13;57.54;99390.69;4875516;28;97124;-86
2023/11/10 06:29:13;;;;;;;0.50;0.40;;;13.60;99.90;;;14.29;57.49;99388.63;4893883;28;97868;-88
2023/11/10 06:31:40;;;;;;;0.20;0.20;;;13.80;99.90;;;14.34;60.78;99391.81;4872837;28;99054;-86
2023/11/10 06:34:06;;;;;;;2.67;0.60;;;13.80;99.90;;;14.30;56.77;99395.63;4891820;28;97688;-87
2023/11/10 06:36:32;;;;;;;1.33;0.40;;;13.80;99.90;;;14.31;55.24;99386.72;4879125;28;97317;-87
2023/11/10 06:38:58;;;;;;;0.43;0.37;;;13.90;99.90;;;14.27;53.95;99396.69;4866807;28;99510;-86
2023/11/10 06:41:24;;;;;;;3.50;0.40;;;13.90;99.90;;;14.32;58.14;99393.75;4886847;28;98424;-87
2023/11/10 06:43:50;;;;;;;3.17;0.40;;;13.80;99.90;;;14.20;53.61;99399.91;4870379;28;97310;-86
2023/11/10 06:46:22;;;;;;;1.27;0.30;;;13.80;99.90;;;14.02;54.38;99395.88;4897613;28;97939;-86
2023/11/10 06:48:53;;;;;;;0.60;0.40;;;13.60;99.90;;;13.84;55.42;99409.44;4888907;28;97028;-86
2023/11/10 06:51:20;;;;;;;1.80;0.50;;;13.40;99.90;;;13.84;57.50;99404.16;4899740;28;97294;-87
2023/11/10 06:53:45;;;;;;;0.60;0.13;;;13.30;99.90;;;14.21;60.02;99410.41;4890875;28;97377;-87
2023/11/10 06:56:11;;;;;;;0.90;0.20;;;13.70;99.90;;;14.36;58.51;99411.13;4844377;28;96997;-86
2023/11/10 06:58:39;;;;;;;0.70;0.47;;;13.90;99.90;;;14.63;60.05;99423.44;4881174;28;102343;-87
2023/11/10 07:01:06;;;;;;;0.50;0.20;;;14.20;99.90;;;14.61;59.36;99420.00;4853461;28;98957;-85
2023/11/10 07:03:33;;;;;;;0.43;0.30;;;14.20;99.90;;;14.90;59.83;99426.75;4892898;28;96984;-86
2023/11/10 07:06:00;;;;;;;0.60;0.37;;;14.50;99.90;;;15.12;58.83;99433.97;4889039;28;97142;-87
2023/11/10 07:08:27;;;;;;;1.20;0.57;;;14.70;99.90;;;14.95;52.41;99435.22;4888715;28;102126;-87
2023/11/10 07:10:57;;;;;;;1.43;0.40;;;14.60;99.90;;;14.93;56.46;99437.13;4867370;28;97733;-87
2023/11/10 07:13:24;;;;;;;1.50;0.67;;;14.50;99.90;;;14.54;53.29;99438.19;4896986;28;97358;-87
2023/11/10 07:15:50;;;;;;;1.23;0.50;;;14.10;99.90;;;14.28;53.24;99432.03;4892608;28;97531;-88
2023/11/10 07:18:17;;;;;;;3.37;0.83;;;13.60;99.90;;;13.39;55.15;99439.91;4879367;28;97764;-87
2023/11/10 07:20:44;;;;;;;0.73;0.53;;;12.50;99.90;;;13.15;57.72;99442.31;4881268;28;98804;-88
2023/11/10 07:23:11;;;;;;;3.57;0.60;;;12.50;99.90;;;13.05;58.78;99441.25;4864934;28;97210;-87
2023/11/10 07:25:37;;;;;;;1.20;0.50;;;12.50;99.90;;;12.93;58.53;99436.72;4866272;28;99985;-87
2023/11/10 07:28:04;;;;;;;3.23;0.70;;;12.60;99.90;;;12.86;57.95;99446.00;4847320;28;97378;-88
2023/11/10 07:30:30;;;;;;;1.37;0.50;;;12.50;99.90;;;12.82;58.76;99437.41;4891792;28;98033;-87
2023/11/10 07:32:59;;;;;;;0.63;0.50;;;12.50;99.90;;;12.85;59.88;99428.44;4891111;28;113965;-87
2023/11/10 07:35:26;;;;;;;2.63;0.70;;;12.50;99.90;;;12.78;58.26;99430.63;4890497;28;97344;-88
2023/11/10 07:37:52;;;;;;;2.07;0.50;;;12.50;99.90;;;12.74;59.30;99429.13;4870557;28;105342;-87
2023/11/10 07:40:18;;;;;;;1.57;0.70;;;12.50;99.90;;;12.63;59.06;99440.38;4863635;28;98080;-89
2023/11/10 07:42:46;;;;;;;3.27;0.63;;;12.40;99.90;;;12.62;58.24;99428.13;4892222;28;97375;-87
2023/11/10 07:45:16;;;;;;;1.00;0.60;;;12.30;99.90;;;12.61;59.35;99436.16;4888678;28;97398;-88
2023/11/10 07:48:01;;;;;;;2.90;0.70;;;12.30;99.90;;;12.59;58.98;99432.75;4834950;28;102552;-86
2023/11/10 07:50:32;;;;;;;2.73;0.90;;;12.30;99.90;;;12.57;59.61;99429.34;4832843;28;102843;-88
2023/11/10 07:52:58;;;;;;;1.93;1.10;;;12.30;99.90;;;12.57;58.43;99429.34;4865681;28;98597;-87
2023/11/10 07:55:24;;;;;;;1.77;0.87;;;12.30;99.90;;;12.58;59.65;99426.59;4856374;28;100410;-88
2023/11/10 07:57:50;;;;;;;2.73;0.70;;;12.30;99.90;;;12.60;60.77;99424.72;4876214;28;105062;-86
2023/11/10 08:00:18;;;;;;;1.43;0.50;;;12.40;99.90;;;13.02;64.28;99430.84;4878884;28;97513;-87
2023/11/10 08:02:51;;;;;;;1.33;0.73;;;12.60;99.90;;;13.04;60.98;99418.38;4862951;28;98059;-86
2023/11/10 08:05:19;;;;;;;2.50;0.77;;;12.70;99.90;;;13.23;63.28;99434.75;4879030;28;104302;-86
2023/11/10 08:07:49;;;;;;;1.27;0.53;;;12.80;99.90;;;13.32;61.58;99434.16;4879583;28;97953;-86
2023/11/10 08:10:16;;;;;;;4.13;0.80;;;12.90;99.90;;;13.39;56.60;99424.84;4880107;28;100053;-88
2023/11/10 08:12:45;;;;;;;1.67;0.70;;;13.10;99.90;;;13.40;56.19;99426.56;4886379;28;103849;-88
2023/11/10 08:15:14;;;;;;;1.63;0.60;;;13.10;99.90;;;13.61;58.02;99434.03;4884554;28;98020;-87
2023/11/10 08:17:40;;;;;;;1.90;0.80;;;13.20;99.90;;;13.65;56.32;99430.22;4912067;28;101934;-88
2023/11/10 08:20:07;;;;;;;2.67;0.80;;;13.30;99.90;;;13.70;58.88;99422.78;4868200;28;97524;-88
2023/11/10 08:22:33;;;;;;;0.73;0.50;;;13.30;99.90;;;13.74;57.56;99428.72;4881644;28;100597;-87
2023/11/10 08:25:02;;;;;;;1.13;0.57;;;13.40;99.90;;;13.79;57.13;99427.47;4861073;28;96881;-88
2023/11/10 08:27:31;;;;;;;2.43;0.77;;;13.50;99.90;;;13.64;54.41;99425.88;4885258;28;103086;-87
2023/11/10 08:29:56;;;;;;;1.73;0.50;;;13.30;99.90;;;13.78;56.51;99425.78;4908666;28;101062;-87
2023/11/10 08:32:23;;;;;;;1.67;0.77;;;13.40;99.90;;;13.94;59.07;99429.06;4871161;28;101436;-87
2023/11/10 08:34:51;;;;;;;1.57;0.63;;;13.50;99.90;;;14.10;60.38;99420.06;4882473;28;97343;-87
2023/11/10 08:37:20;;;;;;;0.57;0.40;;;13.70;99.90;;;14.00;56.40;99419.84;4859161;28;99472;-88
2023/11/10 08:39:45;;;;;;;1.57;0.60;;;13.70;99.90;;;14.07;55.36;99420.28;4859004;28;97437;-87
2023/11/10 08:42:11;;;;;;;2.67;0.83;;;13.70;99.90;;;13.99;53.48;99432.25;4878327;28;103368;-87
2023/11/10 08:44:37;;;;;;;0.57;0.40;;;13.70;99.90;;;13.91;52.86;99431.09;4879421;28;110992;-87
2023/11/10 08:47:03;;;;;;;2.87;0.50;;;13.70;99.90;;;13.89;54.53;99425.06;4878310;28;99757;-88
2023/11/10 08:49:32;;;;;;;0.97;0.60;;;13.60;99.90;;;14.05;54.95;99422.19;4889996;28;97115;-87
2023/11/10 08:51:59;;;;;;;2.27;0.60;;;13.70;99.90;;;14.02;54.13;99432.97;4869920;28;98960;-87
2023/11/10 08:54:25;;;;;;;0.40;0.20;;;13.70;99.90;;;14.08;55.49;99421.97;4863844;28;96994;-86
2023/11/10 08:56:51;;;;;;;1.10;0.60;;;13.80;99.90;;;14.38;59.54;99425.13;4843133;28;99479;-87
2023/11/10 08:59:17;;;;;;;3.60;0.57;;;14.10;99.90;;;14.38;52.96;99419.81;4864534;28;97770;-87
2023/11/10 09:01:44;;;;;;;4.03;0.70;;;14.30;99.90;;;14.34;53.30;99413.03;4884506;28;97626;-86
2023/11/10 09:04:10;;;;;;;1.03;0.30;;;14.20;99.90;;;14.39;55.21;99410.91;4895310;28;97315;-87
2023/11/10 09:06:36;;;;;;;1.13;0.40;;;14.20;99.90;;;14.18;52.25;99417.75;4866853;28;99610;-88
2023/11/10 09:09:03;;;;;;;0.87;0.30;;;14.00;99.90;;;14.31;53.85;99407.94;4854660;28;100319;-89
2023/11/10 09:11:29;;;;;;;1.07;0.50;;;14.00;99.90;;;14.41;55.68;99411.63;4888915;28;96865;-87
2023/11/10 09:13:54;;;;;;;2.73;0.50;;;14.10;99.90;;;14.41;54.63;99413.44;4817525;28;108349;-87
2023/11/10 09:16:20;;;;;;;0.63;0.47;;;14.20;99.90;;;14.44;56.79;99403.50;4872050;28;110928;-86
2023/11/10 09:18:46;;;;;;;2.33;0.97;;;14.20;99.90;;;14.43;56.86;99411.53;4854071;28;97007;-87
2023/11/10 09:21:15;;;;;;;2.80;0.53;;;14.20;99.90;;;14.49;51.84;99412.00;4864413;28;97454;-87
2023/11/10 09:23:40;;;;;;;1.17;0.70;;;14.30;99.90;;;14.47;51.64;99408.59;4864977;28;97644;-86
2023/11/10 09:26:06;;;;;;;0.50;0.23;;;14.30;99.90;;;14.53;56.66;99400.19;4869600;28;99731;-87
2023/11/10 09:28:34;;;;;;;0.77;0.50;;;14.40;99.90;;;14.39;53.31;99416.22;4869110;28;105028;-86
2023/11/10 09:31:10;;;;;;;0.53;0.20;;;14.30;99.90;;;14.22;53.14;99411.25;4887262;28;97836;-86
2023/11/10 09:33:37;;;;;;;0.90;0.40;;;14.00;99.90;;;14.42;57.71;99405.38;4860994;28;97405;-85
2023/11/10 09:36:03;;;;;;;1.90;0.47;;;14.20;99.90;;;14.35;51.10;99398.81;4878575;28;98471;-88
2023/11/10 09:38:29;;;;;;;3.90;0.63;;;14.20;99.90;;;14.20;51.51;99410.50;4898259;28;97777;-86
2023/11/10 09:40:55;;;;;;;0.80;0.67;;;14.00;99.90;;;14.18;54.58;99407.13;4850584;28;98555;-87
2023/11/10 09:43:24;;;;;;;2.17;0.60;;;14.00;99.90;;;14.50;57.79;99412.84;4885533;28;98788;-87
2023/11/10 09:45:54;;;;;;;2.47;0.73;;;14.20;99.90;;;14.61;57.05;99414.69;4872108;28;97688;-86
2023/11/10 09:48:22;;;;;;;1.53;0.47;;;14.40;99.90;;;14.69;52.45;99420.31;4916656;28;97114;-85
2023/11/10 09:50:59;;;;;;;0.20;0.17;;;14.60;99.90;;;14.66;53.75;99415.25;4854777;28;101744;-86
2023/11/10 09:53:26;;;;;;;0.83;0.27;;;14.50;99.90;;;14.86;53.37;99420.78;4861572;28;97226;-86
2023/11/10 09:55:52;;;;;;;3.23;0.50;;;14.70;99.90;;;14.80;49.76;99421.25;4860078;28;114109;-86
2023/11/10 09:58:20;;;;;;;0.70;0.43;;;14.70;99.90;;;14.90;57.09;99421.44;4836824;28;97333;-86
2023/11/10 10:00:48;;;;;;;1.37;0.37;;;14.70;99.90;;;14.92;52.02;99424.81;4869233;28;97391;-87
2023/11/10 10:03:14;;;;;;;1.03;0.37;;;14.80;99.90;;;14.68;50.30;99415.97;4911886;28;99096;-86
2023/11/10 10:05:41;;;;;;;0.40;0.13;;;14.50;99.90;;;14.81;53.94;99412.31;4889425;28;97655;-86
2023/11/10 10:08:07;;;;;;;0.77;0.30;;;14.60;99.90;;;14.82;50.31;99407.84;4850010;28;97356;-87
2023/11/10 10:10:37;;;;;;;1.00;0.27;;;14.70;99.90;;;14.94;55.13;99411.44;4884863;28;96989;-87
2023/11/10 10:13:03;;;;;;;1.27;0.30;;;14.70;99.90;;;14.83;54.26;99409.56;4852294;28;97024;-87
2023/11/10 10:15:31;;;;;;;0.77;0.40;;;14.60;99.90;;;14.56;49.02;99407.94;4900425;28;98867;-86
2023/11/10 10:18:09;;;;;;;2.10;0.80;;;14.50;99.90;;;14.66;52.21;99401.97;4894010;28;102182;-86